Airport View

Enter AWOS ICAO identifier for current METAR.

ex. KFNL

KSMX 261051Z AUTO 31004KT 10SM OVC009 15/14 A2993 RMK AO2 SLP135 T01500139 $

26 Jun 2019 11:54

Frequency: 121.15

Phone: 805-928-0384

Other Area AWOS: KVBG - KLPC - KSBP - KIZA

TAF AMD KSMX 261010Z 2610/2706 VRB03KT P6SM OVC009 FM261600 VRB03KT P6SM OVC012 FM261900 31007KT P6SM SCT015 FM262100 31014KT P6SM SKC FM270300 31007KT P6SM SKC